WIEE

Minangkabau Airport

Minangkabau, Indonesia
TAF WIEE 182300Z 1900/1924 VRB02KT 9999 SCT020 BECMG 1900/1902 36003KT FEW020 BECMG 1906/1908 22004KT
Issued Valid From Valid To
Jan-18 @ 23:00 UTC
(3 hours ago)
Jan-19 @ 00:00 UTC
(2 hours ago)
Jan-20 @ 00:00 UTC
(in 22 hours)
Jan-19 @ 00:00 to Jan-20 @ 00:00
TAF WIEE 182300Z 1900/1924 VRB02KT 9999 SCT020
Wind Visibility Clouds
Variable at 2 knots 10,000+ meters
  • Scattered at 2,000' AGL
Becoming Jan-19 @ 00:00 to Jan-19 @ 06:00
BECMG 1900/1902 36003KT FEW020
Wind Visibility Clouds
360° at 3 knots 10,000+ meters
  • Few at 2,000' AGL
Becoming Jan-19 @ 06:00 to Jan-20 @ 00:00
BECMG 1906/1908 22004KT
Wind Visibility Clouds
220° at 4 knots 10,000+ meters
  • Few at 2,000' AGL
TAF WIEE 182300Z 1900/1924 VRB02KT 9999 SCT020 BECMG 1900/1902 36003KT FEW020 BECMG 1906/1908 22004KT
Issued Jan-18 @ 23:00 UTC
(3 hours ago)
Valid From Jan-19 @ 00:00 UTC
(2 hours ago)
Valid To Jan-20 @ 00:00 UTC
(in 22 hours)
Jan-19 @ 00:00 - Jan-20 @ 00:00
Wind Visibility
Variable at 2 knots 10,000+ meters
Clouds
  • Scattered at 2,000' AGL
Becoming Jan-19 @ 00:00 - Jan-19 @ 06:00
Wind Visibility
360° at 3 knots 10,000+ meters
Clouds
  • Few at 2,000' AGL
Becoming Jan-19 @ 06:00 - Jan-20 @ 00:00
Wind Visibility
220° at 4 knots 10,000+ meters
Clouds
  • Few at 2,000' AGL